createdAt,value
2019-03-12T00:00:12.678Z,7.87
2019-03-12T00:02:39.887Z,7.70
2019-03-12T00:05:07.715Z,7.17
2019-03-12T00:07:34.203Z,7.22
2019-03-12T00:10:00.519Z,6.45
2019-03-12T00:12:26.905Z,6.80
2019-03-12T00:14:53.307Z,6.42
2019-03-12T00:17:19.651Z,5.80
2019-03-12T00:19:45.958Z,5.33
2019-03-12T00:22:12.546Z,4.65
2019-03-12T00:24:38.997Z,4.85
2019-03-12T00:27:05.447Z,4.72
2019-03-12T00:29:31.819Z,7.50
2019-03-12T00:31:58.682Z,2.85
2019-03-12T00:34:25.054Z,3.60
2019-03-12T00:36:51.469Z,7.22
2019-03-12T00:39:17.771Z,6.90
2019-03-12T00:41:44.299Z,6.50
2019-03-12T00:44:10.809Z,5.28
2019-03-12T00:46:37.118Z,4.42
2019-03-12T00:49:03.400Z,4.00
2019-03-12T00:51:29.900Z,3.45
2019-03-12T00:53:56.334Z,3.33
2019-03-12T00:56:22.630Z,3.42
2019-03-12T00:58:48.971Z,3.72
2019-03-12T01:01:15.489Z,3.33
2019-03-12T01:03:42.110Z,3.25
2019-03-12T01:06:08.645Z,2.85
2019-03-12T01:08:35.131Z,2.72
2019-03-12T01:11:01.502Z,6.17
2019-03-12T01:13:27.902Z,4.10
2019-03-12T01:15:54.310Z,3.40
2019-03-12T01:18:21.058Z,4.00
2019-03-12T01:20:47.582Z,3.20
2019-03-12T01:23:14.006Z,2.70
2019-03-12T01:25:40.595Z,2.12
2019-03-12T01:28:07.322Z,2.05
2019-03-12T01:30:33.671Z,2.25
2019-03-12T01:33:00.092Z,3.50
2019-03-12T01:35:26.545Z,3.95
2019-03-12T01:37:52.839Z,3.62
2019-03-12T01:40:19.179Z,4.10
2019-03-12T01:42:45.455Z,3.70
2019-03-12T01:45:13.311Z,3.65
2019-03-12T01:47:39.614Z,3.02
2019-03-12T01:50:13.067Z,3.30
2019-03-12T01:52:39.659Z,3.83
2019-03-12T01:55:10.613Z,4.30
2019-03-12T01:57:37.345Z,4.60
2019-03-12T02:00:11.767Z,5.25
2019-03-12T02:02:38.389Z,5.15
2019-03-12T02:05:05.347Z,6.80
2019-03-12T02:07:31.836Z,7.35
2019-03-12T02:09:58.322Z,6.28
2019-03-12T02:12:24.836Z,7.60
2019-03-12T02:14:51.515Z,7.40
2019-03-12T02:17:17.950Z,8.58
2019-03-12T02:19:44.445Z,8.45
2019-03-12T02:22:10.915Z,9.18
2019-03-12T02:24:37.315Z,8.60
2019-03-12T02:27:03.965Z,8.98
2019-03-12T02:29:30.348Z,8.48
2019-03-12T02:31:56.827Z,9.98
2019-03-12T02:34:23.223Z,10.00
2019-03-12T02:36:49.634Z,10.00
2019-03-12T02:39:16.108Z,9.90
2019-03-12T02:41:42.562Z,9.58
2019-03-12T02:44:08.995Z,8.55
2019-03-12T02:46:35.411Z,9.45
2019-03-12T02:49:01.836Z,9.18
2019-03-12T02:51:28.350Z,8.65
2019-03-12T02:53:54.730Z,9.80
2019-03-12T02:56:21.248Z,9.98
2019-03-12T02:58:47.632Z,8.13
2019-03-12T03:01:13.970Z,7.97
2019-03-12T03:03:40.355Z,8.25
2019-03-12T03:06:20.469Z,9.35
2019-03-12T03:08:46.983Z,9.08
2019-03-12T03:11:13.564Z,10.08
2019-03-12T03:13:39.853Z,10.13
2019-03-12T03:16:06.379Z,9.08
2019-03-12T03:18:32.944Z,8.95
2019-03-12T03:20:59.582Z,10.43
2019-03-12T03:23:25.903Z,11.15
2019-03-12T03:25:52.154Z,11.00
2019-03-12T03:28:18.489Z,10.60
2019-03-12T03:30:44.985Z,11.03
2019-03-12T03:33:11.683Z,13.83
2019-03-12T03:35:38.077Z,14.70
2019-03-12T03:38:04.388Z,15.18
2019-03-12T03:40:30.845Z,13.10
2019-03-12T03:42:57.536Z,11.38
2019-03-12T03:45:23.960Z,10.98
2019-03-12T03:47:50.588Z,10.55
2019-03-12T03:50:17.567Z,11.18
2019-03-12T03:52:44.069Z,11.35
2019-03-12T03:55:16.268Z,11.12
2019-03-12T03:57:43.379Z,10.48
2019-03-12T04:00:22.506Z,10.10
2019-03-12T04:02:49.251Z,10.55
2019-03-12T04:05:16.623Z,11.08
2019-03-12T04:07:43.142Z,11.75
2019-03-12T04:10:11.681Z,10.70
2019-03-12T04:12:38.263Z,10.65
2019-03-12T04:15:12.310Z,10.45
2019-03-12T04:17:38.636Z,9.38
2019-03-12T04:20:08.945Z,9.03
2019-03-12T04:22:35.263Z,10.05
2019-03-12T04:25:02.731Z,9.78
2019-03-12T04:27:29.302Z,11.80
2019-03-12T04:29:55.850Z,12.88
2019-03-12T04:32:22.223Z,12.47
2019-03-12T04:34:48.683Z,13.20
2019-03-12T04:37:15.005Z,14.35
2019-03-12T04:39:41.393Z,15.32
2019-03-12T04:42:08.188Z,14.87
2019-03-12T04:44:34.572Z,16.77
2019-03-12T04:47:01.163Z,16.65
2019-03-12T04:49:27.464Z,16.75
2019-03-12T04:51:54.031Z,16.52
2019-03-12T04:54:20.320Z,18.05
2019-03-12T04:56:46.953Z,16.97
2019-03-12T04:59:13.334Z,18.15
2019-03-12T05:01:43.151Z,19.48
2019-03-12T05:04:09.770Z,19.12
2019-03-12T05:06:36.240Z,22.05
2019-03-12T05:09:06.983Z,19.37
2019-03-12T05:11:33.350Z,19.30
2019-03-12T05:14:23.355Z,19.25
2019-03-12T05:16:52.527Z,16.17
2019-03-12T05:19:18.954Z,15.80
2019-03-12T05:21:45.407Z,16.95
2019-03-12T05:24:11.954Z,16.95
2019-03-12T05:26:38.336Z,14.30
2019-03-12T05:29:04.634Z,15.75
2019-03-12T05:31:31.079Z,15.48
2019-03-12T05:33:57.651Z,17.12
2019-03-12T05:36:24.241Z,15.98
2019-03-12T05:38:50.547Z,15.83
2019-03-12T05:41:16.871Z,14.75
2019-03-12T05:43:43.386Z,14.85
2019-03-12T05:46:09.987Z,15.15
2019-03-12T05:48:36.387Z,17.50
2019-03-12T05:51:03.091Z,16.37
2019-03-12T05:53:50.918Z,15.00
2019-03-12T05:56:17.409Z,16.05
2019-03-12T05:58:43.891Z,28.47
2019-03-12T06:01:10.277Z,14.75
2019-03-12T06:03:36.815Z,16.57
2019-03-12T06:06:03.602Z,16.10
2019-03-12T06:08:30.137Z,18.62
2019-03-12T06:10:56.542Z,25.72
2019-03-12T06:13:22.975Z,22.48
2019-03-12T06:15:53.013Z,14.60
2019-03-12T06:18:20.270Z,15.80
2019-03-12T06:20:48.564Z,17.85
2019-03-12T06:23:15.349Z,12.90
2019-03-12T06:25:42.402Z,19.65
2019-03-12T06:28:08.973Z,16.27
2019-03-12T06:30:37.375Z,10.80
2019-03-12T06:33:06.056Z,10.13
2019-03-12T06:35:54.150Z,9.45
2019-03-12T06:38:21.573Z,10.10
2019-03-12T06:40:50.480Z,12.90
2019-03-12T06:43:16.913Z,14.03
2019-03-12T06:46:01.728Z,16.70
2019-03-12T06:48:30.202Z,13.10
2019-03-12T06:51:01.119Z,12.85
2019-03-12T06:53:44.611Z,12.88
2019-03-12T06:56:12.819Z,16.67
2019-03-12T06:58:56.180Z,17.05
2019-03-12T07:01:36.360Z,14.98
2019-03-12T07:04:02.903Z,17.10
2019-03-12T07:06:47.491Z,15.93
2019-03-12T07:09:14.013Z,16.90
2019-03-12T07:11:54.191Z,16.27
2019-03-12T07:14:31.235Z,18.80
2019-03-12T07:16:57.567Z,20.68
2019-03-12T07:19:31.698Z,21.93
2019-03-12T07:21:58.164Z,20.05
2019-03-12T07:24:35.455Z,19.10
2019-03-12T07:27:03.764Z,19.40
2019-03-12T07:29:38.057Z,18.05
2019-03-12T07:32:16.607Z,17.45
2019-03-12T07:34:48.842Z,16.50
2019-03-12T07:37:19.903Z,18.70
2019-03-12T07:40:00.312Z,19.80
2019-03-12T07:42:34.782Z,21.20
2019-03-12T07:45:14.877Z,20.75
2019-03-12T07:47:59.786Z,21.93
2019-03-12T07:50:26.177Z,22.15
2019-03-12T07:53:03.099Z,20.12
2019-03-12T07:55:44.789Z,19.77
2019-03-12T07:58:34.870Z,15.50
2019-03-12T08:00:56.283Z,16.85
2019-03-12T08:03:42.486Z,19.07
2019-03-12T08:06:27.665Z,18.95
2019-03-12T08:09:03.514Z,19.62
2019-03-12T08:11:31.816Z,17.05
2019-03-12T08:14:13.137Z,15.60
2019-03-12T08:16:43.976Z,14.43
2019-03-12T08:19:18.160Z,14.18
2019-03-12T08:21:49.552Z,12.07
2019-03-12T08:24:19.470Z,14.87
2019-03-12T08:26:58.374Z,10.30
2019-03-12T08:29:29.159Z,21.30
2019-03-12T08:32:03.350Z,13.60
2019-03-12T08:34:46.899Z,9.00
2019-03-12T08:37:15.370Z,7.20
2019-03-12T08:40:00.650Z,8.93
2019-03-12T08:42:37.788Z,13.38
2019-03-12T08:45:11.069Z,8.55
2019-03-12T08:47:56.015Z,8.20
2019-03-12T08:50:27.493Z,7.92
2019-03-12T08:53:04.787Z,7.53
2019-03-12T08:55:31.155Z,6.90
2019-03-12T08:58:16.108Z,8.23
2019-03-12T09:00:56.823Z,6.17
2019-03-12T09:03:35.147Z,8.08
2019-03-12T09:06:21.432Z,8.25
2019-03-12T09:08:53.985Z,9.38
2019-03-12T09:11:31.165Z,10.20
2019-03-12T09:14:08.356Z,8.95
2019-03-12T09:16:36.697Z,8.60
2019-03-12T09:19:03.353Z,10.85
2019-03-12T09:21:46.858Z,10.53
2019-03-12T09:24:19.111Z,13.30
2019-03-12T09:27:01.060Z,13.90
2019-03-12T09:29:45.971Z,13.08
2019-03-12T09:32:23.428Z,14.13
2019-03-12T09:35:07.486Z,13.78
2019-03-12T09:37:35.868Z,14.70
2019-03-12T09:40:38.139Z,12.85
2019-03-12T09:43:12.763Z,12.40
2019-03-12T09:45:47.824Z,10.13
2019-03-12T09:48:33.168Z,11.83
2019-03-12T09:51:11.313Z,10.60
2019-03-12T09:53:57.171Z,11.35
2019-03-12T09:56:27.152Z,12.90
2019-03-12T09:59:13.057Z,12.30
2019-03-12T10:01:59.683Z,11.75
2019-03-12T10:04:42.091Z,11.08
2019-03-12T10:07:14.764Z,12.47
2019-03-12T10:09:48.934Z,11.43
2019-03-12T10:12:19.081Z,11.60
2019-03-12T10:14:57.245Z,8.58
2019-03-12T10:17:35.507Z,9.20
2019-03-12T10:20:24.794Z,9.48
2019-03-12T10:22:52.980Z,8.65
2019-03-12T10:25:38.552Z,9.10
2019-03-12T10:28:09.168Z,9.55
2019-03-12T10:30:39.930Z,7.62
2019-03-12T10:33:26.518Z,6.50
2019-03-12T10:39:26.762Z,8.38
2019-03-12T10:42:00.469Z,8.35
2019-03-12T10:44:29.801Z,8.78
2019-03-12T10:47:02.481Z,9.28
2019-03-12T10:49:37.478Z,9.48
2019-03-12T10:51:58.927Z,14.98
2019-03-12T10:54:25.942Z,11.90
2019-03-12T10:56:53.847Z,13.43
2019-03-12T10:59:20.913Z,10.40
2019-03-12T11:01:48.637Z,12.90
2019-03-12T11:04:15.878Z,9.83
2019-03-12T11:06:43.861Z,7.62
2019-03-12T11:09:12.155Z,7.62
2019-03-12T11:11:40.206Z,6.85
2019-03-12T11:14:08.106Z,6.72
2019-03-12T11:16:36.452Z,7.00
2019-03-12T11:19:04.343Z,7.33
2019-03-12T11:21:32.831Z,6.80
2019-03-12T11:24:01.193Z,6.40
2019-03-12T11:26:29.427Z,8.08
2019-03-12T11:28:58.062Z,7.87
2019-03-12T11:31:26.293Z,7.83
2019-03-12T11:33:54.264Z,8.58
2019-03-12T11:36:22.497Z,9.85
2019-03-12T11:38:51.022Z,8.80
2019-03-12T11:41:19.265Z,8.08
2019-03-12T11:43:47.907Z,8.25
2019-03-12T11:46:15.174Z,6.80
2019-03-12T11:48:43.529Z,7.00
2019-03-12T11:51:12.011Z,7.10
2019-03-12T11:53:40.166Z,6.87
2019-03-12T11:56:07.318Z,6.78
2019-03-12T11:58:34.470Z,7.10
2019-03-12T12:01:06.159Z,7.25
2019-03-12T12:03:33.271Z,6.30
2019-03-12T12:06:00.881Z,6.75
2019-03-12T12:08:28.613Z,6.22
2019-03-12T12:10:56.883Z,7.95
2019-03-12T12:13:24.468Z,9.95
2019-03-12T12:15:52.301Z,7.03
2019-03-12T12:18:19.877Z,7.60
2019-03-12T12:20:48.439Z,7.40
2019-03-12T12:23:15.698Z,8.40
2019-03-12T12:25:44.192Z,9.08
2019-03-12T12:28:11.993Z,11.70
2019-03-12T12:30:39.721Z,11.53
2019-03-12T12:33:07.919Z,8.43
2019-03-12T12:35:35.542Z,5.97
2019-03-12T12:38:03.710Z,7.45
2019-03-12T12:40:31.418Z,7.35
2019-03-12T12:42:59.772Z,10.00
2019-03-12T12:45:31.073Z,8.93
2019-03-12T12:47:59.784Z,9.85
2019-03-12T12:50:28.145Z,8.48
2019-03-12T12:52:56.250Z,7.78
2019-03-12T12:55:23.713Z,7.55
2019-03-12T12:57:52.335Z,8.75
2019-03-12T13:00:25.450Z,9.38
2019-03-12T13:02:53.939Z,8.00
2019-03-12T13:05:22.737Z,9.20
2019-03-12T13:07:51.482Z,7.92
2019-03-12T13:10:24.979Z,8.40
2019-03-12T13:12:54.682Z,10.20
2019-03-12T13:15:23.045Z,11.73
2019-03-12T13:17:51.800Z,8.73
2019-03-12T13:20:18.739Z,14.13
2019-03-12T13:22:47.425Z,9.15
2019-03-12T13:25:16.931Z,11.73
2019-03-12T13:27:44.936Z,9.83
2019-03-12T13:30:24.620Z,9.95
2019-03-12T13:32:52.964Z,21.25
2019-03-12T13:35:21.567Z,11.78
2019-03-12T13:37:50.168Z,13.68
2019-03-12T13:40:24.565Z,11.43
2019-03-12T13:42:53.070Z,8.40
2019-03-12T13:45:26.177Z,11.40
2019-03-12T13:47:54.995Z,12.35
2019-03-12T13:50:23.298Z,11.70
2019-03-12T13:52:51.666Z,20.55
2019-03-12T13:55:19.358Z,11.12
2019-03-12T13:57:47.735Z,8.43
2019-03-12T14:00:25.913Z,11.50
2019-03-12T14:02:54.320Z,12.15
2019-03-12T14:05:24.147Z,9.33
2019-03-12T14:07:52.664Z,9.03
2019-03-12T14:10:26.351Z,20.57
2019-03-12T14:12:55.518Z,29.32
2019-03-12T14:15:31.570Z,27.05
2019-03-12T14:18:00.081Z,30.77
2019-03-12T14:20:43.519Z,11.03
2019-03-12T14:23:22.129Z,7.75
2019-03-12T14:25:50.918Z,10.43
2019-03-12T14:28:19.325Z,10.63
2019-03-12T14:30:47.866Z,9.85
2019-03-12T14:33:16.485Z,11.60
2019-03-12T14:35:51.437Z,9.13
2019-03-12T14:38:15.427Z,7.90
2019-03-12T14:40:43.591Z,9.05
2019-03-12T14:43:12.055Z,7.50
2019-03-12T14:45:53.661Z,8.28
2019-03-12T14:48:45.448Z,8.30
2019-03-12T14:51:21.039Z,8.50
2019-03-12T14:53:53.581Z,9.55
2019-03-12T14:56:21.968Z,9.63
2019-03-12T14:58:51.425Z,18.75
2019-03-12T15:01:23.514Z,7.70
2019-03-12T15:03:51.882Z,12.03
2019-03-12T15:06:20.381Z,7.00
2019-03-12T15:08:49.019Z,6.70
2019-03-12T15:11:17.354Z,8.28
2019-03-12T15:13:45.813Z,7.17
2019-03-12T15:16:13.965Z,6.20
2019-03-12T15:18:42.717Z,7.65
2019-03-12T15:21:11.113Z,9.05
2019-03-12T15:23:39.489Z,5.53
2019-03-12T15:26:08.027Z,6.08
2019-03-12T15:28:36.481Z,9.23
2019-03-12T15:31:05.128Z,6.90
2019-03-12T15:33:33.517Z,5.62
2019-03-12T15:36:02.049Z,6.58
2019-03-12T15:38:30.754Z,6.17
2019-03-12T15:40:58.949Z,6.67
2019-03-12T15:43:27.186Z,9.48
2019-03-12T15:45:55.822Z,10.30
2019-03-12T15:48:23.965Z,9.88
2019-03-12T15:50:52.362Z,8.05
2019-03-12T15:53:21.215Z,8.75
2019-03-12T15:55:50.491Z,6.97
2019-03-12T15:58:18.986Z,7.28
2019-03-12T16:00:47.144Z,17.87
2019-03-12T16:03:15.448Z,15.43
2019-03-12T16:05:43.773Z,14.43
2019-03-12T16:08:13.945Z,13.75
2019-03-12T16:10:42.536Z,9.63
2019-03-12T16:13:11.515Z,9.80
2019-03-12T16:15:40.147Z,8.85
2019-03-12T16:18:08.537Z,10.95
2019-03-12T16:20:36.669Z,20.57
2019-03-12T16:23:04.838Z,23.75
2019-03-12T16:25:32.978Z,29.75
2019-03-12T16:28:01.611Z,32.30
2019-03-12T16:30:30.582Z,35.85
2019-03-12T16:32:59.264Z,33.35
2019-03-12T16:35:27.643Z,33.28
2019-03-12T16:37:56.172Z,28.30
2019-03-12T16:40:24.323Z,29.45
2019-03-12T16:42:53.216Z,36.83
2019-03-12T16:45:21.626Z,45.88
2019-03-12T16:47:50.457Z,40.08
2019-03-12T16:50:18.885Z,45.10
2019-03-12T16:52:47.314Z,35.68
2019-03-12T16:55:18.727Z,37.80
2019-03-12T16:57:48.484Z,40.00
2019-03-12T17:00:18.399Z,40.35
2019-03-12T17:02:46.152Z,43.78
2019-03-12T17:05:14.733Z,48.42
2019-03-12T17:07:42.047Z,46.02
2019-03-12T17:10:20.369Z,44.27
2019-03-12T17:12:48.828Z,42.20
2019-03-12T17:15:19.160Z,37.85
2019-03-12T17:17:47.277Z,34.98
2019-03-12T17:20:16.185Z,32.83
2019-03-12T17:22:44.506Z,35.00
2019-03-12T17:25:12.960Z,39.10
2019-03-12T17:27:41.521Z,50.38
2019-03-12T17:30:21.372Z,53.73
2019-03-12T17:32:49.632Z,54.38
2019-03-12T17:35:33.356Z,59.63
2019-03-12T17:38:00.859Z,53.42
2019-03-12T17:40:28.414Z,52.15
2019-03-12T17:42:57.025Z,46.13
2019-03-12T17:45:25.605Z,50.70
2019-03-12T17:47:53.856Z,75.08
2019-03-12T17:50:21.338Z,72.32
2019-03-12T17:52:49.890Z,58.13
2019-03-12T17:55:18.273Z,48.25
2019-03-12T17:57:45.920Z,40.45
2019-03-12T18:00:24.006Z,29.15
2019-03-12T18:02:52.720Z,23.22
2019-03-12T18:05:21.134Z,40.67
2019-03-12T18:07:49.700Z,43.50
2019-03-12T18:10:18.517Z,45.08
2019-03-12T18:12:46.306Z,38.60
2019-03-12T18:15:20.217Z,25.60
2019-03-12T18:17:48.013Z,50.50
2019-03-12T18:20:19.915Z,64.30
2019-03-12T18:22:47.468Z,70.32
2019-03-12T18:25:34.566Z,66.33
2019-03-12T18:28:02.087Z,67.92
2019-03-12T18:30:30.212Z,73.07
2019-03-12T18:32:58.565Z,64.92
2019-03-12T18:35:26.012Z,54.55
2019-03-12T18:37:54.328Z,55.65
2019-03-12T18:40:24.719Z,57.35
2019-03-12T18:42:52.291Z,57.95
2019-03-12T18:45:32.339Z,58.42
2019-03-12T18:48:00.606Z,59.77
2019-03-12T18:50:28.838Z,63.65
2019-03-12T18:52:56.626Z,73.17
2019-03-12T18:55:37.966Z,67.65
2019-03-12T18:58:07.125Z,47.13
2019-03-12T19:00:36.451Z,43.05
2019-03-12T19:03:04.522Z,36.17
2019-03-12T19:05:33.118Z,36.83
2019-03-12T19:08:01.353Z,39.03
2019-03-12T19:10:29.961Z,37.73
2019-03-12T19:12:58.631Z,37.65
2019-03-12T19:15:27.096Z,47.45
2019-03-12T19:17:55.424Z,52.62
2019-03-12T19:20:23.971Z,50.45
2019-03-12T19:22:52.309Z,51.18
2019-03-12T19:25:26.053Z,44.20
2019-03-12T19:27:59.671Z,49.10
2019-03-12T19:30:24.588Z,59.05
2019-03-12T19:32:55.280Z,50.58
2019-03-12T19:35:25.942Z,55.15
2019-03-12T19:37:54.473Z,58.40
2019-03-12T19:40:38.241Z,54.20
2019-03-12T19:43:05.832Z,52.73
2019-03-12T19:45:34.275Z,51.37
2019-03-12T19:48:02.754Z,49.20
2019-03-12T19:50:30.922Z,45.65
2019-03-12T19:52:59.257Z,36.25
2019-03-12T19:55:48.404Z,40.58
2019-03-12T19:58:16.728Z,43.02
2019-03-12T20:00:45.787Z,43.48
2019-03-12T20:03:15.417Z,43.50
2019-03-12T20:05:44.179Z,37.40
2019-03-12T20:08:12.658Z,35.17
2019-03-12T20:11:23.841Z,34.63
2019-03-12T20:14:34.847Z,50.80
2019-03-12T20:17:38.405Z,55.60
2019-03-12T20:20:41.171Z,66.10
2019-03-12T20:23:22.944Z,81.37
2019-03-12T20:26:30.557Z,66.95
2019-03-12T20:29:41.821Z,61.63
2019-03-12T20:32:43.493Z,56.50
2019-03-12T20:35:35.841Z,50.17
2019-03-12T20:38:56.012Z,49.03
2019-03-12T20:42:17.779Z,48.17
2019-03-12T20:45:41.007Z,45.52
2019-03-12T20:49:10.749Z,48.70
2019-03-12T20:51:59.795Z,46.33
2019-03-12T20:54:49.090Z,48.98
2019-03-12T20:58:13.753Z,51.20
2019-03-12T21:01:18.946Z,51.88
2019-03-12T21:04:26.902Z,53.75
2019-03-12T21:07:43.637Z,57.23
2019-03-12T21:10:51.405Z,53.87
2019-03-12T21:13:48.593Z,59.40
2019-03-12T21:19:52.295Z,51.42
2019-03-12T21:22:43.307Z,38.55
2019-03-12T21:25:37.283Z,21.55
2019-03-12T21:28:48.050Z,38.33
2019-03-12T21:31:15.335Z,22.30
2019-03-12T21:33:42.388Z,23.18
2019-03-12T21:36:09.239Z,39.58
2019-03-12T21:38:36.449Z,47.20
2019-03-12T21:41:03.103Z,62.67
2019-03-12T21:43:29.776Z,54.15
2019-03-12T21:45:56.271Z,42.40
2019-03-12T21:48:23.311Z,49.30
2019-03-12T21:50:50.050Z,49.35
2019-03-12T21:53:16.589Z,47.98
2019-03-12T21:55:43.236Z,43.87
2019-03-12T21:58:09.859Z,38.55
2019-03-12T22:00:36.700Z,45.35
2019-03-12T22:03:03.327Z,39.45
2019-03-12T22:05:29.976Z,41.73
2019-03-12T22:07:56.428Z,36.63
2019-03-12T22:10:22.844Z,44.53
2019-03-12T22:12:49.512Z,39.50
2019-03-12T22:15:16.082Z,40.38
2019-03-12T22:17:42.739Z,20.50
2019-03-12T22:20:14.279Z,17.30
2019-03-12T22:22:55.179Z,14.40
2019-03-12T22:25:21.918Z,12.43
2019-03-12T22:27:48.352Z,10.50
2019-03-12T22:30:20.473Z,9.50
2019-03-12T22:32:46.957Z,10.68
2019-03-12T22:35:13.388Z,11.90
2019-03-12T22:37:39.813Z,15.93
2019-03-12T22:40:10.648Z,15.58
2019-03-12T22:42:36.984Z,14.28
2019-03-12T22:45:07.732Z,10.90
2019-03-12T22:47:34.314Z,13.50
2019-03-12T22:50:00.686Z,12.20
2019-03-12T22:52:27.222Z,7.42
2019-03-12T22:54:53.757Z,7.17
2019-03-12T22:57:20.291Z,7.15
2019-03-12T22:59:46.668Z,6.75
2019-03-12T23:02:13.363Z,8.00
2019-03-12T23:04:40.012Z,5.78
2019-03-12T23:07:06.575Z,7.25
2019-03-12T23:09:33.185Z,6.80
2019-03-12T23:12:00.028Z,6.30
2019-03-12T23:14:26.873Z,7.03
2019-03-12T23:16:53.610Z,7.08
2019-03-12T23:19:20.458Z,7.47
2019-03-12T23:21:47.092Z,8.38
2019-03-12T23:24:14.035Z,8.18
2019-03-12T23:26:40.775Z,7.95
2019-03-12T23:29:07.650Z,7.53
2019-03-12T23:31:34.505Z,7.97
2019-03-12T23:34:01.202Z,7.75
2019-03-12T23:36:27.840Z,6.22
2019-03-12T23:38:54.579Z,7.12
2019-03-12T23:41:21.322Z,6.97
2019-03-12T23:43:48.057Z,7.65
2019-03-12T23:46:14.901Z,5.83
2019-03-12T23:48:41.793Z,6.62
2019-03-12T23:51:08.484Z,5.58
2019-03-12T23:53:35.327Z,5.87
2019-03-12T23:56:02.067Z,5.30
2019-03-12T23:58:29.523Z,5.10
